Time;durP1;ratioP1;P1;durP2;ratioP2;P2;SDS_P1;SDS_P2;PMS_P1;PMS_P2;Temp;Humidity;BMP_temperature;BMP_pressure;BME280_temperature;BME280_humidity;BME280_pressure;Samples;Min_cycle;Max_cycle;Signal;HPM_P1;HPM_P2
2022/10/22 06:00:44;;;;;;;;;1.00;1.00;;;;;-147.14;100.00;58812.66;5793121;23;46616;-63
2022/10/22 06:03:10;;;;;;;;;1.00;1.00;;;;;-147.14;100.00;58812.66;4989080;28;45308;-63
2022/10/22 06:05:36;;;;;;;;;1.33;1.00;;;;;-147.14;100.00;58812.66;4983677;28;69064;-62
2022/10/22 06:08:03;;;;;;;;;1.00;1.00;;;;;-147.14;100.00;58812.66;4980975;28;45623;-62
2022/10/22 06:10:28;;;;;;;;;7.33;1.67;;;;;-147.14;100.00;58812.66;4989546;28;47166;-62
2022/10/22 06:12:53;;;;;;;;;1.00;1.00;;;;;-147.14;100.00;58812.66;4978656;28;73328;-62
2022/10/22 06:15:19;;;;;;;;;4.00;2.00;;;;;-147.14;100.00;58812.66;4991591;28;67096;-62
2022/10/22 06:17:45;;;;;;;;;3.67;1.00;;;;;-147.14;100.00;58812.66;4981852;28;45435;-62
2022/10/22 06:20:11;;;;;;;;;2.00;2.00;;;;;-147.14;100.00;58812.66;4992549;28;46481;-62
2022/10/22 06:22:36;;;;;;;;;2.00;2.00;;;;;-147.14;100.00;58812.66;4986827;28;45337;-62
2022/10/22 06:25:02;;;;;;;;;4.00;1.00;;;;;-147.14;100.00;58812.66;4985172;28;63329;-62
2022/10/22 06:27:27;;;;;;;;;3.00;2.00;;;;;-147.14;100.00;58812.66;4980168;28;45346;-62
2022/10/22 06:29:53;;;;;;;;;4.00;2.00;;;;;-147.14;100.00;58812.66;4989248;28;69267;-62
2022/10/22 06:32:18;;;;;;;;;2.33;0.00;;;;;-147.14;100.00;58812.66;4984457;28;64744;-61
2022/10/22 06:34:43;;;;;;;;;1.67;0.67;;;;;-147.14;100.00;58812.66;4990139;28;62243;-62
2022/10/22 06:37:09;;;;;;;;;2.67;1.00;;;;;-147.14;100.00;58812.66;4985896;28;45307;-62
2022/10/22 06:39:35;;;;;;;;;1.00;1.00;;;;;-147.14;100.00;58812.66;4989633;28;46887;-62
2022/10/22 06:42:00;;;;;;;;;2.00;1.00;;;;;-147.14;100.00;58812.66;4984582;28;52616;-63
2022/10/22 06:44:25;;;;;;;;;2.00;1.00;;;;;-147.14;100.00;58812.66;4989951;28;62101;-61
2022/10/22 06:46:51;;;;;;;;;1.00;1.00;;;;;-147.14;100.00;58812.66;4985007;28;45354;-62
2022/10/22 06:49:18;;;;;;;;;3.33;1.00;;;;;-147.14;100.00;58812.66;4991260;28;47122;-62
2022/10/22 06:51:43;;;;;;;;;1.00;0.00;;;;;-147.14;100.00;58812.66;4983616;28;45225;-63
2022/10/22 06:54:09;;;;;;;;;4.33;1.33;;;;;-147.14;100.00;58812.66;4981100;28;45778;-63
2022/10/22 06:56:35;;;;;;;;;4.67;1.00;;;;;-147.14;100.00;58812.66;4995548;28;45350;-63
2022/10/22 06:59:00;;;;;;;;;2.00;2.00;;;;;-147.14;100.00;58812.66;4980923;28;74866;-63
2022/10/22 07:01:29;;;;;;;;;6.00;1.00;;;;;-147.14;100.00;58812.66;4993370;28;45531;-63
2022/10/22 07:03:54;;;;;;;;;3.00;1.00;;;;;-147.14;100.00;58812.66;5003655;28;45585;-63
2022/10/22 07:06:21;;;;;;;;;1.33;1.33;;;;;-147.14;100.00;58812.66;5010970;28;45512;-63
2022/10/22 07:08:46;;;;;;;;;1.00;1.00;;;;;-147.14;100.00;58812.66;5002868;28;46703;-63
2022/10/22 07:11:23;;;;;;;;;1.00;1.00;;;;;-147.14;100.00;58812.66;4987428;28;74310;-63
2022/10/22 07:13:49;;;;;;;;;3.00;2.00;;;;;-147.14;100.00;58812.66;5004383;28;45388;-63
2022/10/22 07:16:15;;;;;;;;;1.33;1.33;;;;;-147.14;100.00;58812.66;4999476;28;45155;-63
2022/10/22 07:18:41;;;;;;;;;2.00;2.00;;;;;-147.14;100.00;58812.66;5007058;28;46402;-63
2022/10/22 07:21:08;;;;;;;;;4.00;3.00;;;;;-147.14;100.00;58812.66;5007447;28;45822;-63
2022/10/22 07:23:33;;;;;;;;;3.33;2.00;;;;;-147.14;100.00;58812.66;4982132;28;45848;-63
2022/10/22 07:26:01;;;;;;;;;2.33;2.33;;;;;-147.14;100.00;58812.66;5008177;28;49787;-63
2022/10/22 07:28:27;;;;;;;;;4.00;2.67;;;;;-147.14;100.00;58812.66;5009918;28;46897;-63
2022/10/22 07:30:53;;;;;;;;;2.67;1.33;;;;;-147.14;100.00;58812.66;4998364;28;45897;-63
2022/10/22 07:33:18;;;;;;;;;3.67;2.00;;;;;-147.14;100.00;58812.66;5008560;28;65418;-63
2022/10/22 07:35:43;;;;;;;;;1.67;1.67;;;;;-147.14;100.00;58812.66;4986957;28;48425;-63
2022/10/22 07:38:09;;;;;;;;;3.67;2.00;;;;;-147.14;100.00;58812.66;4996065;28;47530;-63
2022/10/22 07:40:34;;;;;;;;;2.00;2.00;;;;;-147.14;100.00;58812.66;5004306;28;54153;-63
2022/10/22 07:43:00;;;;;;;;;5.67;3.33;;;;;-147.14;100.00;58812.66;5006299;28;45362;-63
2022/10/22 07:45:26;;;;;;;;;4.33;2.00;;;;;-147.14;100.00;58812.66;5003145;28;45349;-63
2022/10/22 07:47:51;;;;;;;;;3.00;1.00;;;;;-147.14;100.00;58812.66;5007705;28;52309;-64
2022/10/22 07:50:17;;;;;;;;;1.33;1.00;;;;;-147.14;100.00;58812.66;5003799;28;46019;-63
2022/10/22 07:52:42;;;;;;;;;0.00;0.00;;;;;-147.14;100.00;58812.66;5009140;28;45495;-63
2022/10/22 07:55:08;;;;;;;;;2.00;2.00;;;;;-147.14;100.00;58812.66;5000294;28;45408;-63
2022/10/22 07:57:34;;;;;;;;;3.00;3.00;;;;;-147.14;100.00;58812.66;4999521;28;46100;-63
2022/10/22 07:59:59;;;;;;;;;5.00;2.00;;;;;-147.14;100.00;58812.66;5004420;28;45798;-63
2022/10/22 08:02:25;;;;;;;;;4.33;4.33;;;;;-147.14;100.00;58812.66;4982668;28;45791;-63
2022/10/22 08:04:50;;;;;;;;;2.00;2.00;;;;;-147.14;100.00;58812.66;4981188;28;45355;-63
2022/10/22 08:07:16;;;;;;;;;4.33;3.00;;;;;-147.14;100.00;58812.66;4980098;28;45967;-63
2022/10/22 08:09:41;;;;;;;;;1.67;1.00;;;;;-147.14;100.00;58812.66;4981727;28;45339;-63
2022/10/22 08:12:07;;;;;;;;;2.00;2.00;;;;;-147.14;100.00;58812.66;4980206;28;66462;-63
2022/10/22 08:14:32;;;;;;;;;0.00;0.00;;;;;-147.14;100.00;58812.66;4981405;28;45239;-63
2022/10/22 08:16:57;;;;;;;;;5.00;2.00;;;;;-147.14;100.00;58812.66;4980338;28;66925;-63
2022/10/22 08:19:23;;;;;;;;;3.00;2.67;;;;;-147.14;100.00;58812.66;4981600;28;66875;-63
2022/10/22 08:21:48;;;;;;;;;3.00;3.00;;;;;-147.14;100.00;58812.66;4987389;28;45349;-63
2022/10/22 08:24:14;;;;;;;;;2.00;2.00;;;;;-147.14;100.00;58812.66;4990954;28;45668;-63
2022/10/22 08:26:40;;;;;;;;;3.33;2.33;;;;;-147.14;100.00;58812.66;4986424;28;45264;-63
2022/10/22 08:29:06;;;;;;;;;8.67;3.00;;;;;-147.14;100.00;58812.66;4980653;28;45288;-63
2022/10/22 08:31:31;;;;;;;;;4.33;3.00;;;;;-147.14;100.00;58812.66;4980843;28;45487;-63
2022/10/22 08:33:56;;;;;;;;;3.00;1.00;;;;;-147.14;100.00;58812.66;4989036;28;45296;-63
2022/10/22 08:36:22;;;;;;;;;2.67;2.67;;;;;-147.14;100.00;58812.66;4980230;28;70235;-63
2022/10/22 08:38:47;;;;;;;;;4.25;2.50;;;;;-147.14;100.00;58812.66;4982988;28;71218;-63
2022/10/22 08:41:21;;;;;;;;;2.33;2.00;;;;;-147.14;100.00;58812.66;4987571;28;61382;-63
2022/10/22 08:44:41;;;;;;;;;3.50;2.25;;;;;-147.14;100.00;58812.66;4991503;28;46937;-63
2022/10/22 08:47:09;;;;;;;;;3.33;3.33;;;;;-147.14;100.00;58812.66;4939253;28;47531;-63
2022/10/22 08:49:38;;;;;;;;;4.67;1.33;;;;;-147.14;100.00;58812.66;4984529;28;45361;-63
2022/10/22 08:52:03;;;;;;;;;6.25;1.00;;;;;-147.14;100.00;58812.66;4987855;28;45376;-63
2022/10/22 08:54:48;;;;;;;;;2.75;2.75;;;;;-147.14;100.00;58812.66;4979472;28;45346;-63
2022/10/22 08:57:35;;;;;;;;;2.00;2.00;;;;;-147.14;100.00;58812.66;4985081;28;45548;-63
2022/10/22 09:00:20;;;;;;;;;2.33;1.67;;;;;-147.14;100.00;58812.66;4978108;28;45409;-64
2022/10/22 09:03:04;;;;;;;;;3.50;1.75;;;;;-147.14;100.00;58812.66;4998346;28;46345;-63
2022/10/22 09:05:38;;;;;;;;;4.25;1.75;;;;;-147.14;100.00;58812.66;5003536;28;45689;-64
2022/10/22 09:08:06;;;;;;;;;2.00;2.00;;;;;-147.14;100.00;58812.66;4981870;28;48541;-64
2022/10/22 09:10:35;;;;;;;;;4.00;2.00;;;;;-147.14;100.00;58812.66;4988434;28;45520;-64
2022/10/22 09:13:01;;;;;;;;;2.25;1.00;;;;;-147.14;100.00;58812.66;5004155;28;45415;-64
2022/10/22 09:15:27;;;;;;;;;1.75;1.75;;;;;-147.14;100.00;58812.66;5000954;28;45310;-64
2022/10/22 09:18:02;;;;;;;;;2.00;2.00;;;;;-147.14;100.00;58812.66;5011040;28;46521;-64
2022/10/22 09:20:37;;;;;;;;;2.75;1.25;;;;;-147.14;100.00;58812.66;4997498;28;45537;-64
2022/10/22 09:23:37;;;;;;;;;2.00;1.00;;;;;-147.14;100.00;58812.66;4998473;28;45388;-64
2022/10/22 09:26:11;;;;;;;;;2.75;2.00;;;;;-147.14;100.00;58812.66;4995155;28;45401;-64
2022/10/22 09:28:37;;;;;;;;;2.00;2.00;;;;;-147.14;100.00;58812.66;4990862;28;45350;-64
2022/10/22 09:31:11;;;;;;;;;3.00;1.50;;;;;-147.14;100.00;58812.66;4996924;28;68027;-65
2022/10/22 09:33:37;;;;;;;;;5.50;2.00;;;;;-147.14;100.00;58812.66;5001208;28;45196;-65
2022/10/22 09:36:06;;;;;;;;;6.75;1.00;;;;;-147.14;100.00;58812.66;5008252;28;45285;-65
2022/10/22 09:38:35;;;;;;;;;1.75;1.00;;;;;-147.14;100.00;58812.66;4999311;28;47163;-65
2022/10/22 09:41:02;;;;;;;;;2.20;1.60;;;;;-147.14;100.00;58812.66;4988740;28;45718;-65
2022/10/22 09:43:28;;;;;;;;;2.75;2.75;;;;;-147.14;100.00;58812.66;5006719;28;45662;-66
2022/10/22 09:45:58;;;;;;;;;1.25;0.75;;;;;-147.14;100.00;58812.66;5007139;28;63969;-65
2022/10/22 09:48:47;;;;;;;;;1.00;0.00;;;;;-147.14;100.00;58812.66;4984540;28;46038;-64
2022/10/22 09:51:26;;;;;;;;;0.60;0.00;;;;;-147.14;100.00;58812.66;4980348;28;45506;-64
2022/10/22 09:54:00;;;;;;;;;0.00;0.00;;;;;-147.14;100.00;58812.66;4984246;28;45394;-64
2022/10/22 09:56:34;;;;;;;;;0.75;0.00;;;;;-147.14;100.00;58812.66;5001404;28;45541;-64
2022/10/22 09:59:00;;;;;;;;;3.50;1.00;;;;;-147.14;100.00;58812.66;5006994;28;45473;-64
2022/10/22 10:01:28;;;;;;;;;0.00;0.00;;;;;-147.14;100.00;58812.66;4983744;28;45429;-64
2022/10/22 10:03:53;;;;;;;;;0.75;0.25;;;;;-147.14;100.00;58812.66;5004392;28;45751;-64
2022/10/22 10:06:21;;;;;;;;;1.00;1.00;;;;;-147.14;100.00;58812.66;4966424;28;56599;-64
2022/10/22 10:08:47;;;;;;;;;0.50;0.00;;;;;-147.14;100.00;58812.66;4978215;28;46146;-64
2022/10/22 10:11:51;;;;;;;;;1.20;0.00;;;;;-147.14;100.00;58812.66;4982514;28;45455;-64
2022/10/22 10:14:36;;;;;;;;;4.75;0.00;;;;;-147.14;100.00;58812.66;4978508;28;46432;-64
2022/10/22 10:17:41;;;;;;;;;1.25;1.00;;;;;-147.14;100.00;58812.66;4976736;28;45499;-64
2022/10/22 10:20:09;;;;;;;;;2.50;0.75;;;;;-147.14;100.00;58812.66;4975760;28;45548;-64
2022/10/22 10:22:57;;;;;;;;;0.00;0.00;;;;;-147.14;100.00;58812.66;4981245;28;45498;-63
2022/10/22 10:25:45;;;;;;;;;0.20;0.20;;;;;-147.14;100.00;58812.66;4984666;28;46351;-63
2022/10/22 10:28:48;;;;;;;;;0.75;0.25;;;;;-147.14;100.00;58812.66;4978064;28;45555;-63
2022/10/22 10:31:20;;;;;;;;;0.25;0.25;;;;;-147.14;100.00;58812.66;4982157;28;45565;-63
2022/10/22 10:34:07;;;;;;;;;3.80;0.20;;;;;-147.14;100.00;58812.66;4978352;28;45393;-63
2022/10/22 10:36:47;;;;;;;;;0.60;0.40;;;;;-147.14;100.00;58812.66;4987828;28;45448;-64
2022/10/22 10:39:17;;;;;;;;;3.00;1.00;;;;;-147.14;100.00;58812.66;4978689;28;45778;-63
2022/10/22 10:41:48;;;;;;;;;0.00;0.00;;;;;-147.14;100.00;58812.66;4980844;28;45526;-63
2022/10/22 10:44:51;;;;;;;;;0.00;0.00;;;;;-147.14;100.00;58812.66;4981020;28;45372;-63
2022/10/22 10:47:35;;;;;;;;;0.00;0.00;;;;;-147.14;100.00;58812.66;4979038;28;45432;-63
2022/10/22 10:50:23;;;;;;;;;0.00;0.00;;;;;-147.14;100.00;58812.66;4988606;28;45476;-63
2022/10/22 10:52:55;;;;;;;;;0.50;0.50;;;;;-147.14;100.00;58812.66;4976817;28;47143;-63
2022/10/22 10:55:31;;;;;;;;;0.00;0.00;;;;;-147.14;100.00;58812.66;4985960;28;45290;-63
2022/10/22 10:58:11;;;;;;;;;0.20;0.20;;;;;-147.14;100.00;58812.66;4997288;28;45314;-62
2022/10/22 11:00:55;;;;;;;;;0.75;0.75;;;;;-147.14;100.00;58812.66;4978148;28;46655;-62
2022/10/22 11:03:37;;;;;;;;;4.50;1.25;;;;;-147.14;100.00;58812.66;4994038;28;45447;-61
2022/10/22 11:06:07;;;;;;;;;1.40;0.00;;;;;-147.14;100.00;58812.66;4992426;28;45389;-62
2022/10/22 11:08:40;;;;;;;;;1.75;1.25;;;;;-147.14;100.00;58812.66;4991399;28;45420;-61
2022/10/22 11:11:14;;;;;;;;;0.00;0.00;;;;;-147.14;100.00;58812.66;4980231;28;45520;-62
2022/10/22 11:13:44;;;;;;;;;0.75;0.75;;;;;-147.14;100.00;58812.66;4989264;28;45321;-58
2022/10/22 11:16:23;;;;;;;;;0.00;0.00;;;;;-147.14;100.00;58812.66;4985086;28;45349;-59
2022/10/22 11:19:02;;;;;;;;;0.00;0.00;;;;;-147.14;100.00;58812.66;4977465;28;45338;-58
2022/10/22 11:21:33;;;;;;;;;2.00;0.25;;;;;-147.14;100.00;58812.66;4977271;28;45546;-59
2022/10/22 11:24:29;;;;;;;;;2.00;1.00;;;;;-147.14;100.00;58812.66;4987361;28;46036;-59
2022/10/22 11:27:17;;;;;;;;;1.00;0.00;;;;;-147.14;100.00;58812.66;4970292;28;45838;-59
2022/10/22 11:29:47;;;;;;;;;1.80;0.00;;;;;-147.14;100.00;58812.66;4987373;28;45474;-59
2022/10/22 11:32:17;;;;;;;;;1.00;0.50;;;;;-147.14;100.00;58812.66;4972936;28;46052;-59
2022/10/22 11:34:44;;;;;;;;;1.00;0.00;;;;;-147.14;100.00;58812.66;4981292;28;46352;-59
2022/10/22 11:37:10;;;;;;;;;1.40;0.20;;;;;-147.14;100.00;58812.66;4982939;28;45776;-59
2022/10/22 11:39:46;;;;;;;;;0.00;0.00;;;;;-147.14;100.00;58812.66;4988462;28;45437;-58
2022/10/22 11:42:19;;;;;;;;;1.25;1.00;;;;;-147.14;100.00;58812.66;4982003;28;45428;-59
2022/10/22 11:44:47;;;;;;;;;0.50;0.50;;;;;-147.14;100.00;58812.66;4980993;28;46053;-58
2022/10/22 11:47:23;;;;;;;;;3.00;0.60;;;;;-147.14;100.00;58812.66;4981638;28;45436;-58
2022/10/22 11:49:58;;;;;;;;;1.00;0.00;;;;;-147.14;100.00;58812.66;4982401;28;45293;-59
2022/10/22 11:53:03;;;;;;;;;0.00;0.00;;;;;-147.14;100.00;58812.66;4994036;28;45670;-58
2022/10/22 11:55:54;;;;;;;;;1.00;0.00;;;;;-147.14;100.00;58812.66;4967708;28;45998;-58
2022/10/22 11:58:40;;;;;;;;;1.00;1.00;;;;;-147.14;100.00;58812.66;4981285;28;45385;-58
2022/10/22 12:01:06;;;;;;;;;2.75;1.25;;;;;-147.14;100.00;58812.66;4986439;28;45704;-59
2022/10/22 12:03:31;;;;;;;;;1.25;1.25;;;;;-147.14;100.00;58812.66;4979041;28;46344;-61
2022/10/22 12:06:10;;;;;;;;;0.50;0.50;;;;;-147.14;100.00;58812.66;4982978;28;46264;-64
2022/10/22 12:08:51;;;;;;;;;2.00;0.20;;;;;-147.14;100.00;58812.66;4980662;28;45494;-60
2022/10/22 12:11:38;;;;;;;;;0.40;0.40;;;;;-147.14;100.00;58812.66;4982801;28;45349;-59
2022/10/22 12:14:13;;;;;;;;;3.00;0.25;;;;;-147.14;100.00;58812.66;4980191;28;45385;-58
2022/10/22 12:16:44;;;;;;;;;2.00;0.25;;;;;-147.14;100.00;58812.66;4965196;28;46122;-58
2022/10/22 12:19:09;;;;;;;;;1.00;1.00;;;;;-147.14;100.00;58812.66;4981009;28;45507;-58
2022/10/22 12:21:36;;;;;;;;;1.00;0.50;;;;;-147.14;100.00;58812.66;4979935;28;45664;-63
2022/10/22 12:24:02;;;;;;;;;1.00;1.00;;;;;-147.14;100.00;58812.66;4979194;28;45455;-63
2022/10/22 12:26:29;;;;;;;;;0.00;0.00;;;;;-147.14;100.00;58812.66;4986703;28;45451;-63
2022/10/22 12:28:59;;;;;;;;;3.80;0.80;;;;;-147.14;100.00;58812.66;4986888;28;45441;-58
2022/10/22 12:31:24;;;;;;;;;1.00;0.25;;;;;-147.14;100.00;58812.66;4981952;28;45581;-58
2022/10/22 12:33:58;;;;;;;;;1.50;1.00;;;;;-147.14;100.00;58812.66;4992040;28;45458;-62
2022/10/22 12:36:28;;;;;;;;;0.00;0.00;;;;;-147.14;100.00;58812.66;4982793;28;46058;-63
2022/10/22 12:38:54;;;;;;;;;2.75;1.00;;;;;-147.14;100.00;58812.66;4974673;28;45481;-62
2022/10/22 12:41:21;;;;;;;;;1.00;0.25;;;;;-147.14;100.00;58812.66;4983391;28;45688;-63
2022/10/22 12:43:46;;;;;;;;;2.75;1.50;;;;;-147.14;100.00;58812.66;4966857;28;45422;-63
2022/10/22 12:46:13;;;;;;;;;1.25;0.50;;;;;-147.14;100.00;58812.66;4982225;28;68492;-59
2022/10/22 12:48:42;;;;;;;;;1.00;1.00;;;;;-147.14;100.00;58812.66;4980398;28;45413;-59
2022/10/22 12:51:10;;;;;;;;;2.00;0.00;;;;;-147.14;100.00;58812.66;4980655;28;45597;-59
2022/10/22 12:53:38;;;;;;;;;1.00;1.00;;;;;-147.14;100.00;58812.66;4982111;28;45470;-59
2022/10/22 12:56:11;;;;;;;;;1.00;1.00;;;;;-147.14;100.00;58812.66;4991095;28;45359;-59
2022/10/22 12:58:46;;;;;;;;;2.25;0.25;;;;;-147.14;100.00;58812.66;4972908;28;45542;-59
2022/10/22 13:01:14;;;;;;;;;0.25;0.25;;;;;-147.14;100.00;58812.66;4981266;28;45433;-59
2022/10/22 13:04:01;;;;;;;;;0.00;0.00;;;;;-147.14;100.00;58812.66;5005187;28;45467;-59
2022/10/22 13:06:27;;;;;;;;;2.00;1.00;;;;;-147.14;100.00;58812.66;4982113;28;46859;-59
2022/10/22 13:08:58;;;;;;;;;2.00;0.00;;;;;-147.14;100.00;58812.66;5012492;28;45329;-59
2022/10/22 13:11:33;;;;;;;;;0.00;0.00;;;;;-147.14;100.00;58812.66;5002262;28;45685;-59
2022/10/22 13:14:17;;;;;;;;;0.00;0.00;;;;;-147.14;100.00;58812.66;4982653;28;45444;-59
2022/10/22 13:16:42;;;;;;;;;0.00;0.00;;;;;-147.14;100.00;58812.66;5004056;28;45603;-59
2022/10/22 13:19:37;;;;;;;;;1.25;0.00;;;;;-147.14;100.00;58812.66;5007893;28;54206;-59
2022/10/22 13:22:03;;;;;;;;;1.00;1.00;;;;;-147.14;100.00;58812.66;4984507;28;45627;-59
2022/10/22 13:24:29;;;;;;;;;0.75;0.75;;;;;-147.14;100.00;58812.66;4999883;28;60453;-66
2022/10/22 13:26:55;;;;;;;;;0.00;0.00;;;;;-147.14;100.00;58812.66;4999564;28;45692;-66
2022/10/22 13:29:21;;;;;;;;;0.75;0.25;;;;;-147.14;100.00;58812.66;4992021;28;45629;-66
2022/10/22 13:31:49;;;;;;;;;0.00;0.00;;;;;-147.14;100.00;58812.66;4999718;28;45511;-66
2022/10/22 13:34:16;;;;;;;;;3.00;1.00;;;;;-147.14;100.00;58812.66;4996465;28;45459;-66
2022/10/22 13:36:42;;;;;;;;;0.50;0.00;;;;;-147.14;100.00;58812.66;4993220;28;45465;-66
2022/10/22 13:39:16;;;;;;;;;0.75;0.50;;;;;-147.14;100.00;58812.66;4997489;28;65603;-66
2022/10/22 13:41:41;;;;;;;;;1.00;0.25;;;;;-147.14;100.00;58812.66;5004700;28;45384;-66
2022/10/22 13:44:06;;;;;;;;;1.25;0.00;;;;;-147.14;100.00;58812.66;4999986;28;65908;-66
2022/10/22 13:46:32;;;;;;;;;2.50;0.00;;;;;-147.14;100.00;58812.66;5004245;28;72337;-66
2022/10/22 13:48:59;;;;;;;;;2.40;0.40;;;;;-147.14;100.00;58812.66;4991715;28;46137;-67
2022/10/22 13:51:31;;;;;;;;;2.00;0.00;;;;;-147.14;100.00;58812.66;5002025;28;45330;-67
2022/10/22 13:53:57;;;;;;;;;0.00;0.00;;;;;-147.14;100.00;58812.66;4992823;28;45480;-67
2022/10/22 13:56:23;;;;;;;;;0.00;0.00;;;;;-147.14;100.00;58812.66;4996457;28;71614;-67
2022/10/22 13:58:49;;;;;;;;;0.25;0.25;;;;;-147.14;100.00;58812.66;5006647;28;45350;-67
2022/10/22 14:01:26;;;;;;;;;0.00;0.00;;;;;-147.14;100.00;58812.66;4990701;28;45546;-66
2022/10/22 14:03:54;;;;;;;;;2.00;0.00;;;;;-147.14;100.00;58812.66;4999210;28;45345;-67
2022/10/22 14:06:20;;;;;;;;;1.00;1.00;;;;;-147.14;100.00;58812.66;5011534;28;45392;-66
2022/10/22 14:08:49;;;;;;;;;0.75;0.75;;;;;-147.14;100.00;58812.66;4998645;28;45347;-66
2022/10/22 14:11:15;;;;;;;;;0.75;0.75;;;;;-147.14;100.00;58812.66;4999435;28;45325;-66
2022/10/22 14:13:41;;;;;;;;;1.00;1.00;;;;;-147.14;100.00;58812.66;4999094;28;45616;-66
2022/10/22 14:16:10;;;;;;;;;1.00;1.00;;;;;-147.14;100.00;58812.66;5008968;28;45264;-66
2022/10/22 14:18:35;;;;;;;;;2.00;0.00;;;;;-147.14;100.00;58812.66;4984912;28;45385;-66
2022/10/22 14:21:06;;;;;;;;;0.00;0.00;;;;;-147.14;100.00;58812.66;5006616;28;45706;-68
2022/10/22 14:23:32;;;;;;;;;2.50;1.00;;;;;-147.14;100.00;58812.66;4998225;28;45276;-66
2022/10/22 14:25:58;;;;;;;;;2.00;0.00;;;;;-147.14;100.00;58812.66;4993218;28;45417;-65
2022/10/22 14:28:23;;;;;;;;;0.00;0.00;;;;;-147.14;100.00;58812.66;4999954;28;45351;-65
2022/10/22 14:30:50;;;;;;;;;0.00;0.00;;;;;-147.14;100.00;58812.66;4997550;28;69528;-65
2022/10/22 14:33:20;;;;;;;;;0.00;0.00;;;;;-147.14;100.00;58812.66;5000041;28;45568;-66
2022/10/22 14:35:49;;;;;;;;;0.00;0.00;;;;;-147.14;100.00;58812.66;4997464;28;46155;-62
2022/10/22 14:38:14;;;;;;;;;0.00;0.00;;;;;-147.14;100.00;58812.66;5015586;28;45352;-61
2022/10/22 14:40:41;;;;;;;;;0.00;0.00;;;;;-147.14;100.00;58812.66;4998521;28;45647;-60
2022/10/22 14:43:10;;;;;;;;;2.00;0.50;;;;;-147.14;100.00;58812.66;4980818;28;45417;-59
2022/10/22 14:45:35;;;;;;;;;0.75;0.00;;;;;-147.14;100.00;58812.66;5001742;28;45374;-60
2022/10/22 14:48:00;;;;;;;;;2.50;0.00;;;;;-147.14;100.00;58812.66;5000933;28;48891;-60
2022/10/22 14:50:26;;;;;;;;;0.75;0.00;;;;;-147.14;100.00;58812.66;5006008;28;45489;-59
2022/10/22 14:52:51;;;;;;;;;1.25;0.25;;;;;-147.14;100.00;58812.66;4998668;28;45354;-59
2022/10/22 14:55:17;;;;;;;;;0.00;0.00;;;;;-147.14;100.00;58812.66;4998747;28;45646;-58
2022/10/22 14:57:43;;;;;;;;;1.00;1.00;;;;;-147.14;100.00;58812.66;5000868;28;45366;-59
2022/10/22 15:00:13;;;;;;;;;0.00;0.00;;;;;-147.14;100.00;58812.66;5007358;28;45491;-58
2022/10/22 15:02:38;;;;;;;;;2.25;0.25;;;;;-147.14;100.00;58812.66;5005740;28;45424;-59
2022/10/22 15:05:04;;;;;;;;;1.00;1.00;;;;;-147.14;100.00;58812.66;5001870;28;70210;-60
2022/10/22 15:07:29;;;;;;;;;0.50;0.50;;;;;-147.14;100.00;58812.66;5001803;28;45432;-60
2022/10/22 15:09:54;;;;;;;;;1.00;1.00;;;;;-147.14;100.00;58812.66;5005848;28;51412;-60
2022/10/22 15:12:20;;;;;;;;;0.00;0.00;;;;;-147.14;100.00;58812.66;4997578;28;45489;-60
2022/10/22 15:14:46;;;;;;;;;2.75;0.00;;;;;-147.14;100.00;58812.66;4994634;28;61483;-60
2022/10/22 15:17:12;;;;;;;;;2.25;2.00;;;;;-147.14;100.00;58812.66;5002758;28;45824;-60
2022/10/22 15:19:37;;;;;;;;;1.50;1.50;;;;;-147.14;100.00;58812.66;4989811;28;45428;-60
2022/10/22 15:22:03;;;;;;;;;3.00;1.00;;;;;-147.14;100.00;58812.66;5020077;28;46990;-60
2022/10/22 15:24:28;;;;;;;;;1.25;1.25;;;;;-147.14;100.00;58812.66;5002237;28;46087;-60
2022/10/22 15:26:54;;;;;;;;;1.50;1.00;;;;;-147.14;100.00;58812.66;5006527;28;45482;-60
2022/10/22 15:29:19;;;;;;;;;3.00;1.00;;;;;-147.14;100.00;58812.66;5011938;28;45419;-60
2022/10/22 15:31:45;;;;;;;;;0.00;0.00;;;;;-147.14;100.00;58812.66;5002927;28;58573;-60
2022/10/22 15:34:10;;;;;;;;;3.25;1.00;;;;;-147.14;100.00;58812.66;5004493;28;46904;-59
2022/10/22 15:36:35;;;;;;;;;2.00;0.50;;;;;-147.14;100.00;58812.66;4998062;28;45356;-59
2022/10/22 15:39:07;;;;;;;;;1.25;0.00;;;;;-147.14;100.00;58812.66;5001290;28;45319;-60
2022/10/22 15:41:32;;;;;;;;;1.00;1.00;;;;;-147.14;100.00;58812.66;5000100;28;45758;-60
2022/10/22 15:43:58;;;;;;;;;1.00;1.00;;;;;-147.14;100.00;58812.66;5005570;28;74163;-59
2022/10/22 15:46:24;;;;;;;;;0.50;0.00;;;;;-147.14;100.00;58812.66;5003028;28;68709;-60
2022/10/22 15:48:51;;;;;;;;;1.00;1.00;;;;;-147.14;100.00;58812.66;5004170;28;45614;-60
2022/10/22 15:51:18;;;;;;;;;1.00;0.00;;;;;-147.14;100.00;58812.66;4995135;28;45480;-60
2022/10/22 15:53:47;;;;;;;;;5.75;1.25;;;;;-147.14;100.00;58812.66;5008602;28;46303;-60
2022/10/22 15:56:12;;;;;;;;;1.00;1.00;;;;;-147.14;100.00;58812.66;4997427;28;45970;-60
2022/10/22 15:58:38;;;;;;;;;1.00;1.00;;;;;-147.14;100.00;58812.66;5003890;28;45726;-60
2022/10/22 16:01:08;;;;;;;;;2.25;1.00;;;;;-147.14;100.00;58812.66;5004611;28;66927;-59
2022/10/22 16:03:34;;;;;;;;;1.00;1.00;;;;;-147.14;100.00;58812.66;4993808;28;45330;-60
2022/10/22 16:05:59;;;;;;;;;2.75;2.75;;;;;-147.14;100.00;58812.66;4980892;28;45540;-62
2022/10/22 16:08:25;;;;;;;;;3.00;2.00;;;;;-147.14;100.00;58812.66;4987106;28;46603;-62
2022/10/22 16:10:52;;;;;;;;;5.75;0.75;;;;;-147.14;100.00;58812.66;4983039;28;45637;-62
2022/10/22 16:13:19;;;;;;;;;2.00;2.00;;;;;-147.14;100.00;58812.66;4985282;28;46313;-62
2022/10/22 16:15:45;;;;;;;;;3.00;3.00;;;;;-147.14;100.00;58812.66;4986333;28;45813;-61
2022/10/22 16:18:10;;;;;;;;;1.00;1.00;;;;;-147.14;100.00;58812.66;4985407;28;45582;-61
2022/10/22 16:20:39;;;;;;;;;2.00;2.00;;;;;-147.14;100.00;58812.66;4984459;28;53744;-61
2022/10/22 16:23:05;;;;;;;;;1.75;0.75;;;;;-147.14;100.00;58812.66;4991451;28;46371;-61
2022/10/22 16:25:36;;;;;;;;;1.00;1.00;;;;;-147.14;100.00;58812.66;4981136;28;73005;-61
2022/10/22 16:28:02;;;;;;;;;2.00;2.00;;;;;-147.14;100.00;58812.66;4981524;28;45517;-61
2022/10/22 16:30:27;;;;;;;;;2.00;2.00;;;;;-147.14;100.00;58812.66;4986492;28;67847;-61
2022/10/22 16:32:52;;;;;;;;;1.00;1.00;;;;;-147.14;100.00;58812.66;4989804;28;66734;-61
2022/10/22 16:35:17;;;;;;;;;2.00;2.00;;;;;-147.14;100.00;58812.66;4990777;28;73458;-61
2022/10/22 16:37:43;;;;;;;;;4.00;4.00;;;;;-147.14;100.00;58812.66;4984598;28;67983;-61
2022/10/22 16:40:09;;;;;;;;;2.00;2.00;;;;;-147.14;100.00;58812.66;4989332;28;45550;-61
2022/10/22 16:42:34;;;;;;;;;2.25;2.00;;;;;-147.14;100.00;58812.66;4986994;28;46228;-62
2022/10/22 16:45:00;;;;;;;;;1.75;1.75;;;;;-147.14;100.00;58812.66;4990057;28;72462;-61
2022/10/22 16:47:25;;;;;;;;;3.00;2.00;;;;;-147.14;100.00;58812.66;4981755;28;62975;-61
2022/10/22 16:49:50;;;;;;;;;3.50;2.00;;;;;-147.14;100.00;58812.66;4979919;28;68240;-61
2022/10/22 16:52:15;;;;;;;;;2.50;2.00;;;;;-147.14;100.00;58812.66;4988328;28;67724;-61
2022/10/22 16:54:41;;;;;;;;;7.00;3.00;;;;;-147.14;100.00;58812.66;4981286;28;72225;-62
2022/10/22 16:57:06;;;;;;;;;5.75;2.00;;;;;-147.14;100.00;58812.66;4969466;28;62221;-61
2022/10/22 16:59:32;;;;;;;;;2.25;1.50;;;;;-147.14;100.00;58812.66;4984144;28;45506;-60
2022/10/22 17:01:57;;;;;;;;;4.00;2.50;;;;;-147.14;100.00;58812.66;4982907;28;45499;-61
2022/10/22 17:04:22;;;;;;;;;3.25;3.00;;;;;-147.14;100.00;58812.66;4983977;28;45537;-60
2022/10/22 17:06:48;;;;;;;;;3.00;3.00;;;;;-147.14;100.00;58812.66;4985564;28;45305;-59
2022/10/22 17:09:14;;;;;;;;;3.50;3.50;;;;;-147.14;100.00;58812.66;4977924;28;45513;-61
2022/10/22 17:11:40;;;;;;;;;6.00;4.00;;;;;-147.14;100.00;58812.66;4974421;28;45408;-61
2022/10/22 17:14:05;;;;;;;;;5.25;4.00;;;;;-147.14;100.00;58812.66;4984073;28;66762;-60
2022/10/22 17:16:31;;;;;;;;;5.25;4.25;;;;;-147.14;100.00;58812.66;4990521;28;45254;-60
2022/10/22 17:18:57;;;;;;;;;5.75;5.25;;;;;-147.14;100.00;58812.66;4996763;28;66045;-60
2022/10/22 17:21:23;;;;;;;;;6.50;5.00;;;;;-147.14;100.00;58812.66;4993922;28;45980;-61